sensor_id;sensor_type;location;lat;lon;timestamp;P1;durP1;ratioP1;P2;durP2;ratioP2
59532;SDS011;45351;53.596;10.000;2022-07-23T00:01:39;9.10;;;1.27;;
59532;SDS011;45351;53.596;10.000;2022-07-23T00:04:07;4.57;;;1.00;;
59532;SDS011;45351;53.596;10.000;2022-07-23T00:06:34;7.47;;;1.20;;
59532;SDS011;45351;53.596;10.000;2022-07-23T00:09:02;14.47;;;1.30;;
59532;SDS011;45351;53.596;10.000;2022-07-23T00:11:29;6.60;;;0.90;;
59532;SDS011;45351;53.596;10.000;2022-07-23T00:13:56;5.23;;;1.17;;
59532;SDS011;45351;53.596;10.000;2022-07-23T00:16:23;8.87;;;1.10;;
59532;SDS011;45351;53.596;10.000;2022-07-23T00:18:50;22.83;;;1.40;;
59532;SDS011;45351;53.596;10.000;2022-07-23T00:21:16;10.00;;;1.00;;
59532;SDS011;45351;53.596;10.000;2022-07-23T00:23:43;10.40;;;1.10;;
59532;SDS011;45351;53.596;10.000;2022-07-23T00:26:11;4.83;;;1.17;;
59532;SDS011;45351;53.596;10.000;2022-07-23T00:28:39;2.40;;;0.97;;
59532;SDS011;45351;53.596;10.000;2022-07-23T00:31:05;5.00;;;0.90;;
59532;SDS011;45351;53.596;10.000;2022-07-23T00:33:32;3.00;;;1.07;;
59532;SDS011;45351;53.596;10.000;2022-07-23T00:35:59;9.77;;;1.27;;
59532;SDS011;45351;53.596;10.000;2022-07-23T00:38:26;8.93;;;1.00;;
59532;SDS011;45351;53.596;10.000;2022-07-23T00:40:53;4.20;;;0.90;;
59532;SDS011;45351;53.596;10.000;2022-07-23T00:43:21;5.37;;;0.87;;
59532;SDS011;45351;53.596;10.000;2022-07-23T00:45:49;4.20;;;0.73;;
59532;SDS011;45351;53.596;10.000;2022-07-23T00:48:16;6.07;;;0.80;;
59532;SDS011;45351;53.596;10.000;2022-07-23T00:50:43;3.43;;;0.80;;
59532;SDS011;45351;53.596;10.000;2022-07-23T00:53:10;6.60;;;1.20;;
59532;SDS011;45351;53.596;10.000;2022-07-23T00:55:38;9.57;;;0.90;;
59532;SDS011;45351;53.596;10.000;2022-07-23T00:58:05;6.60;;;1.13;;
59532;SDS011;45351;53.596;10.000;2022-07-23T01:00:35;9.23;;;1.00;;
59532;SDS011;45351;53.596;10.000;2022-07-23T01:03:02;6.50;;;1.10;;
59532;SDS011;45351;53.596;10.000;2022-07-23T01:05:29;8.57;;;1.00;;
59532;SDS011;45351;53.596;10.000;2022-07-23T01:07:56;2.80;;;1.00;;
59532;SDS011;45351;53.596;10.000;2022-07-23T01:10:23;6.40;;;1.00;;
59532;SDS011;45351;53.596;10.000;2022-07-23T01:12:57;5.63;;;0.80;;
59532;SDS011;45351;53.596;10.000;2022-07-23T01:15:25;1.37;;;0.70;;
59532;SDS011;45351;53.596;10.000;2022-07-23T01:17:53;2.27;;;0.73;;
59532;SDS011;45351;53.596;10.000;2022-07-23T01:20:21;13.63;;;1.27;;
59532;SDS011;45351;53.596;10.000;2022-07-23T01:22:50;7.90;;;1.20;;
59532;SDS011;45351;53.596;10.000;2022-07-23T01:25:21;5.23;;;0.67;;
59532;SDS011;45351;53.596;10.000;2022-07-23T01:28:02;4.60;;;0.90;;
59532;SDS011;45351;53.596;10.000;2022-07-23T01:30:30;4.43;;;0.70;;
59532;SDS011;45351;53.596;10.000;2022-07-23T01:32:58;2.37;;;0.80;;
59532;SDS011;45351;53.596;10.000;2022-07-23T01:35:25;5.20;;;1.00;;
59532;SDS011;45351;53.596;10.000;2022-07-23T01:37:58;7.63;;;0.87;;
59532;SDS011;45351;53.596;10.000;2022-07-23T01:40:24;3.07;;;0.70;;
59532;SDS011;45351;53.596;10.000;2022-07-23T01:42:52;1.60;;;0.70;;
59532;SDS011;45351;53.596;10.000;2022-07-23T01:45:19;6.20;;;0.70;;
59532;SDS011;45351;53.596;10.000;2022-07-23T01:47:49;1.40;;;0.70;;
59532;SDS011;45351;53.596;10.000;2022-07-23T01:50:35;1.60;;;0.70;;
59532;SDS011;45351;53.596;10.000;2022-07-23T01:53:45;2.07;;;0.90;;
59532;SDS011;45351;53.596;10.000;2022-07-23T01:56:32;1.60;;;0.80;;
59532;SDS011;45351;53.596;10.000;2022-07-23T01:59:19;3.07;;;0.73;;
59532;SDS011;45351;53.596;10.000;2022-07-23T02:02:06;1.97;;;0.70;;
59532;SDS011;45351;53.596;10.000;2022-07-23T02:04:33;1.77;;;0.70;;
59532;SDS011;45351;53.596;10.000;2022-07-23T02:07:02;4.20;;;0.70;;
59532;SDS011;45351;53.596;10.000;2022-07-23T02:09:31;1.07;;;0.60;;
59532;SDS011;45351;53.596;10.000;2022-07-23T02:11:58;2.70;;;0.70;;
59532;SDS011;45351;53.596;10.000;2022-07-23T02:14:24;1.13;;;0.60;;
59532;SDS011;45351;53.596;10.000;2022-07-23T02:16:52;5.63;;;0.90;;
59532;SDS011;45351;53.596;10.000;2022-07-23T02:19:18;1.60;;;0.80;;
59532;SDS011;45351;53.596;10.000;2022-07-23T02:21:45;1.20;;;0.70;;
59532;SDS011;45351;53.596;10.000;2022-07-23T02:24:12;1.97;;;0.80;;
59532;SDS011;45351;53.596;10.000;2022-07-23T02:26:42;1.20;;;0.60;;
59532;SDS011;45351;53.596;10.000;2022-07-23T02:29:10;2.33;;;0.70;;
59532;SDS011;45351;53.596;10.000;2022-07-23T02:31:37;1.30;;;0.70;;
59532;SDS011;45351;53.596;10.000;2022-07-23T02:34:05;1.10;;;0.70;;
59532;SDS011;45351;53.596;10.000;2022-07-23T02:36:32;2.03;;;0.60;;
59532;SDS011;45351;53.596;10.000;2022-07-23T02:38:59;1.60;;;0.60;;
59532;SDS011;45351;53.596;10.000;2022-07-23T02:41:29;1.20;;;0.60;;
59532;SDS011;45351;53.596;10.000;2022-07-23T02:43:57;1.33;;;0.70;;
59532;SDS011;45351;53.596;10.000;2022-07-23T02:46:25;2.20;;;0.67;;
59532;SDS011;45351;53.596;10.000;2022-07-23T02:48:53;2.90;;;0.87;;
59532;SDS011;45351;53.596;10.000;2022-07-23T02:51:20;5.67;;;0.83;;
59532;SDS011;45351;53.596;10.000;2022-07-23T02:53:52;1.10;;;0.70;;
59532;SDS011;45351;53.596;10.000;2022-07-23T02:56:20;2.60;;;0.70;;
59532;SDS011;45351;53.596;10.000;2022-07-23T02:58:46;5.10;;;0.80;;
59532;SDS011;45351;53.596;10.000;2022-07-23T03:01:15;4.43;;;0.70;;
59532;SDS011;45351;53.596;10.000;2022-07-23T03:03:44;2.70;;;0.90;;
59532;SDS011;45351;53.596;10.000;2022-07-23T03:06:11;2.53;;;0.80;;
59532;SDS011;45351;53.596;10.000;2022-07-23T03:08:39;6.10;;;0.80;;
59532;SDS011;45351;53.596;10.000;2022-07-23T03:11:06;4.77;;;0.73;;
59532;SDS011;45351;53.596;10.000;2022-07-23T03:13:36;2.80;;;0.70;;
59532;SDS011;45351;53.596;10.000;2022-07-23T03:16:03;5.47;;;1.00;;
59532;SDS011;45351;53.596;10.000;2022-07-23T03:18:32;4.87;;;0.80;;
59532;SDS011;45351;53.596;10.000;2022-07-23T03:21:00;6.50;;;0.80;;
59532;SDS011;45351;53.596;10.000;2022-07-23T03:23:27;4.53;;;1.10;;
59532;SDS011;45351;53.596;10.000;2022-07-23T03:25:53;1.57;;;0.60;;
59532;SDS011;45351;53.596;10.000;2022-07-23T03:28:21;6.70;;;1.00;;
59532;SDS011;45351;53.596;10.000;2022-07-23T03:30:48;6.47;;;0.77;;
59532;SDS011;45351;53.596;10.000;2022-07-23T03:33:15;2.63;;;1.00;;
59532;SDS011;45351;53.596;10.000;2022-07-23T03:35:44;2.90;;;0.77;;
59532;SDS011;45351;53.596;10.000;2022-07-23T03:38:33;1.43;;;0.70;;
59532;SDS011;45351;53.596;10.000;2022-07-23T03:41:00;2.23;;;0.77;;
59532;SDS011;45351;53.596;10.000;2022-07-23T03:43:27;2.27;;;0.80;;
59532;SDS011;45351;53.596;10.000;2022-07-23T03:45:54;4.87;;;0.70;;
59532;SDS011;45351;53.596;10.000;2022-07-23T03:48:20;1.40;;;0.80;;
59532;SDS011;45351;53.596;10.000;2022-07-23T03:50:49;1.63;;;0.60;;
59532;SDS011;45351;53.596;10.000;2022-07-23T03:53:16;1.87;;;0.70;;
59532;SDS011;45351;53.596;10.000;2022-07-23T03:55:45;2.30;;;0.70;;
59532;SDS011;45351;53.596;10.000;2022-07-23T03:58:12;1.40;;;0.70;;
59532;SDS011;45351;53.596;10.000;2022-07-23T04:00:39;2.43;;;0.60;;
59532;SDS011;45351;53.596;10.000;2022-07-23T04:03:06;2.60;;;0.60;;
59532;SDS011;45351;53.596;10.000;2022-07-23T04:05:33;1.20;;;0.70;;
59532;SDS011;45351;53.596;10.000;2022-07-23T04:08:12;2.07;;;0.70;;
59532;SDS011;45351;53.596;10.000;2022-07-23T04:10:42;2.70;;;0.60;;
59532;SDS011;45351;53.596;10.000;2022-07-23T04:13:10;1.60;;;0.77;;
59532;SDS011;45351;53.596;10.000;2022-07-23T04:15:37;3.00;;;0.70;;
59532;SDS011;45351;53.596;10.000;2022-07-23T04:18:05;5.27;;;0.70;;
59532;SDS011;45351;53.596;10.000;2022-07-23T04:20:43;1.20;;;0.70;;
59532;SDS011;45351;53.596;10.000;2022-07-23T04:23:11;11.17;;;1.17;;
59532;SDS011;45351;53.596;10.000;2022-07-23T04:25:39;2.40;;;0.70;;
59532;SDS011;45351;53.596;10.000;2022-07-23T04:28:06;6.17;;;0.90;;
59532;SDS011;45351;53.596;10.000;2022-07-23T04:30:33;7.87;;;0.87;;
59532;SDS011;45351;53.596;10.000;2022-07-23T04:33:01;15.60;;;1.00;;
59532;SDS011;45351;53.596;10.000;2022-07-23T04:35:31;6.80;;;1.10;;
59532;SDS011;45351;53.596;10.000;2022-07-23T04:38:08;4.43;;;0.90;;
59532;SDS011;45351;53.596;10.000;2022-07-23T04:40:36;8.00;;;0.90;;
59532;SDS011;45351;53.596;10.000;2022-07-23T04:43:03;5.10;;;1.33;;
59532;SDS011;45351;53.596;10.000;2022-07-23T04:45:31;2.83;;;0.87;;
59532;SDS011;45351;53.596;10.000;2022-07-23T04:47:58;4.70;;;0.93;;
59532;SDS011;45351;53.596;10.000;2022-07-23T04:50:26;9.33;;;0.90;;
59532;SDS011;45351;53.596;10.000;2022-07-23T04:52:56;3.63;;;1.00;;
59532;SDS011;45351;53.596;10.000;2022-07-23T04:55:23;17.47;;;0.90;;
59532;SDS011;45351;53.596;10.000;2022-07-23T04:57:52;2.47;;;0.70;;
59532;SDS011;45351;53.596;10.000;2022-07-23T05:00:19;2.57;;;0.80;;
59532;SDS011;45351;53.596;10.000;2022-07-23T05:02:46;3.13;;;0.80;;
59532;SDS011;45351;53.596;10.000;2022-07-23T05:05:13;2.37;;;0.90;;
59532;SDS011;45351;53.596;10.000;2022-07-23T05:07:41;7.77;;;1.67;;
59532;SDS011;45351;53.596;10.000;2022-07-23T05:10:08;8.83;;;1.50;;
59532;SDS011;45351;53.596;10.000;2022-07-23T05:12:35;19.73;;;2.13;;
59532;SDS011;45351;53.596;10.000;2022-07-23T05:15:04;22.63;;;2.90;;
59532;SDS011;45351;53.596;10.000;2022-07-23T05:17:31;22.10;;;3.27;;
59532;SDS011;45351;53.596;10.000;2022-07-23T05:19:58;19.77;;;1.73;;
59532;SDS011;45351;53.596;10.000;2022-07-23T05:22:25;3.53;;;1.60;;
59532;SDS011;45351;53.596;10.000;2022-07-23T05:24:52;15.83;;;1.80;;
59532;SDS011;45351;53.596;10.000;2022-07-23T05:27:20;21.70;;;2.63;;
59532;SDS011;45351;53.596;10.000;2022-07-23T05:29:47;23.97;;;1.40;;
59532;SDS011;45351;53.596;10.000;2022-07-23T05:32:15;55.17;;;2.20;;
59532;SDS011;45351;53.596;10.000;2022-07-23T05:34:49;10.77;;;1.90;;
59532;SDS011;45351;53.596;10.000;2022-07-23T05:37:16;13.93;;;1.40;;
59532;SDS011;45351;53.596;10.000;2022-07-23T05:39:43;5.83;;;1.30;;
59532;SDS011;45351;53.596;10.000;2022-07-23T05:42:10;5.30;;;1.13;;
59532;SDS011;45351;53.596;10.000;2022-07-23T05:44:37;2.23;;;0.90;;
59532;SDS011;45351;53.596;10.000;2022-07-23T05:47:04;4.33;;;1.30;;
59532;SDS011;45351;53.596;10.000;2022-07-23T05:49:33;8.30;;;1.10;;
59532;SDS011;45351;53.596;10.000;2022-07-23T05:52:26;2.37;;;1.10;;
59532;SDS011;45351;53.596;10.000;2022-07-23T05:55:16;5.40;;;1.33;;
59532;SDS011;45351;53.596;10.000;2022-07-23T05:57:43;8.10;;;1.50;;
59532;SDS011;45351;53.596;10.000;2022-07-23T06:00:10;8.57;;;1.37;;
59532;SDS011;45351;53.596;10.000;2022-07-23T06:02:43;8.53;;;1.83;;
59532;SDS011;45351;53.596;10.000;2022-07-23T06:05:13;4.47;;;0.90;;
59532;SDS011;45351;53.596;10.000;2022-07-23T06:07:40;8.90;;;1.40;;
59532;SDS011;45351;53.596;10.000;2022-07-23T06:10:07;11.20;;;1.40;;
59532;SDS011;45351;53.596;10.000;2022-07-23T06:12:34;3.17;;;1.33;;
59532;SDS011;45351;53.596;10.000;2022-07-23T06:15:02;4.47;;;1.20;;
59532;SDS011;45351;53.596;10.000;2022-07-23T06:17:31;3.40;;;1.00;;
59532;SDS011;45351;53.596;10.000;2022-07-23T06:19:58;6.80;;;1.40;;
59532;SDS011;45351;53.596;10.000;2022-07-23T06:22:26;7.63;;;1.20;;
59532;SDS011;45351;53.596;10.000;2022-07-23T06:24:53;13.30;;;1.50;;
59532;SDS011;45351;53.596;10.000;2022-07-23T06:27:20;3.57;;;1.00;;
59532;SDS011;45351;53.596;10.000;2022-07-23T06:29:48;4.57;;;1.20;;
59532;SDS011;45351;53.596;10.000;2022-07-23T06:32:15;5.23;;;1.00;;
59532;SDS011;45351;53.596;10.000;2022-07-23T06:34:42;4.77;;;1.10;;
59532;SDS011;45351;53.596;10.000;2022-07-23T06:40:03;5.10;;;1.07;;
59532;SDS011;45351;53.596;10.000;2022-07-23T06:42:34;2.90;;;1.10;;
59532;SDS011;45351;53.596;10.000;2022-07-23T06:45:04;1.70;;;0.80;;
59532;SDS011;45351;53.596;10.000;2022-07-23T06:47:34;2.57;;;0.83;;
59532;SDS011;45351;53.596;10.000;2022-07-23T06:50:01;1.83;;;0.80;;
59532;SDS011;45351;53.596;10.000;2022-07-23T06:52:28;2.73;;;0.80;;
59532;SDS011;45351;53.596;10.000;2022-07-23T06:54:56;3.30;;;1.10;;
59532;SDS011;45351;53.596;10.000;2022-07-23T06:57:23;1.00;;;0.80;;
59532;SDS011;45351;53.596;10.000;2022-07-23T06:59:50;3.13;;;1.10;;
59532;SDS011;45351;53.596;10.000;2022-07-23T07:02:17;2.00;;;0.90;;
59532;SDS011;45351;53.596;10.000;2022-07-23T07:04:44;1.10;;;0.77;;
59532;SDS011;45351;53.596;10.000;2022-07-23T07:07:11;2.93;;;1.00;;
59532;SDS011;45351;53.596;10.000;2022-07-23T07:09:38;1.43;;;1.00;;
59532;SDS011;45351;53.596;10.000;2022-07-23T07:12:07;1.67;;;0.87;;
59532;SDS011;45351;53.596;10.000;2022-07-23T07:14:34;2.83;;;0.90;;
59532;SDS011;45351;53.596;10.000;2022-07-23T07:17:01;5.67;;;1.03;;
59532;SDS011;45351;53.596;10.000;2022-07-23T07:19:28;2.50;;;0.90;;
59532;SDS011;45351;53.596;10.000;2022-07-23T07:21:54;2.63;;;0.93;;
59532;SDS011;45351;53.596;10.000;2022-07-23T07:24:21;3.43;;;1.00;;
59532;SDS011;45351;53.596;10.000;2022-07-23T07:26:48;5.00;;;1.00;;
59532;SDS011;45351;53.596;10.000;2022-07-23T07:29:16;4.60;;;1.20;;
59532;SDS011;45351;53.596;10.000;2022-07-23T07:31:43;4.83;;;1.10;;
59532;SDS011;45351;53.596;10.000;2022-07-23T07:34:11;2.20;;;0.93;;
59532;SDS011;45351;53.596;10.000;2022-07-23T07:36:37;1.20;;;0.90;;
59532;SDS011;45351;53.596;10.000;2022-07-23T07:39:04;4.80;;;1.10;;
59532;SDS011;45351;53.596;10.000;2022-07-23T07:41:32;2.20;;;0.90;;
59532;SDS011;45351;53.596;10.000;2022-07-23T07:43:59;1.70;;;1.00;;
59532;SDS011;45351;53.596;10.000;2022-07-23T07:46:27;2.53;;;1.00;;
59532;SDS011;45351;53.596;10.000;2022-07-23T07:48:54;2.13;;;1.00;;
59532;SDS011;45351;53.596;10.000;2022-07-23T07:51:21;1.93;;;1.00;;
59532;SDS011;45351;53.596;10.000;2022-07-23T07:53:47;2.53;;;0.90;;
59532;SDS011;45351;53.596;10.000;2022-07-23T07:56:14;3.27;;;1.03;;
59532;SDS011;45351;53.596;10.000;2022-07-23T07:58:41;3.30;;;1.10;;
59532;SDS011;45351;53.596;10.000;2022-07-23T08:01:08;2.70;;;1.00;;
59532;SDS011;45351;53.596;10.000;2022-07-23T08:03:36;1.87;;;0.90;;
59532;SDS011;45351;53.596;10.000;2022-07-23T08:06:03;1.10;;;0.80;;
59532;SDS011;45351;53.596;10.000;2022-07-23T08:08:30;1.57;;;0.90;;
59532;SDS011;45351;53.596;10.000;2022-07-23T08:10:57;2.70;;;0.90;;
59532;SDS011;45351;53.596;10.000;2022-07-23T08:13:24;2.40;;;1.10;;
59532;SDS011;45351;53.596;10.000;2022-07-23T08:15:50;2.37;;;0.83;;
59532;SDS011;45351;53.596;10.000;2022-07-23T08:18:18;2.90;;;1.00;;
59532;SDS011;45351;53.596;10.000;2022-07-23T08:20:47;1.30;;;1.00;;
59532;SDS011;45351;53.596;10.000;2022-07-23T08:23:14;3.10;;;1.10;;
59532;SDS011;45351;53.596;10.000;2022-07-23T08:25:44;2.00;;;0.77;;
59532;SDS011;45351;53.596;10.000;2022-07-23T08:28:12;2.80;;;0.87;;
59532;SDS011;45351;53.596;10.000;2022-07-23T08:30:40;2.33;;;0.90;;
59532;SDS011;45351;53.596;10.000;2022-07-23T08:33:09;2.80;;;1.00;;
59532;SDS011;45351;53.596;10.000;2022-07-23T08:35:39;2.50;;;0.80;;
59532;SDS011;45351;53.596;10.000;2022-07-23T08:38:09;1.83;;;0.87;;
59532;SDS011;45351;53.596;10.000;2022-07-23T08:40:37;1.53;;;0.70;;
59532;SDS011;45351;53.596;10.000;2022-07-23T08:43:10;2.43;;;0.80;;
59532;SDS011;45351;53.596;10.000;2022-07-23T08:45:39;1.33;;;0.70;;
59532;SDS011;45351;53.596;10.000;2022-07-23T08:48:07;2.13;;;0.90;;
59532;SDS011;45351;53.596;10.000;2022-07-23T08:50:37;1.27;;;0.83;;
59532;SDS011;45351;53.596;10.000;2022-07-23T08:53:09;1.00;;;0.60;;
59532;SDS011;45351;53.596;10.000;2022-07-23T08:55:36;2.87;;;0.83;;
59532;SDS011;45351;53.596;10.000;2022-07-23T08:58:04;3.43;;;0.90;;
59532;SDS011;45351;53.596;10.000;2022-07-23T09:00:31;1.63;;;0.80;;
59532;SDS011;45351;53.596;10.000;2022-07-23T09:02:58;1.57;;;0.80;;
59532;SDS011;45351;53.596;10.000;2022-07-23T09:05:25;2.13;;;0.93;;
59532;SDS011;45351;53.596;10.000;2022-07-23T09:08:05;3.00;;;0.80;;
59532;SDS011;45351;53.596;10.000;2022-07-23T09:10:42;1.37;;;0.80;;
59532;SDS011;45351;53.596;10.000;2022-07-23T09:13:24;1.20;;;0.80;;
59532;SDS011;45351;53.596;10.000;2022-07-23T09:15:54;1.70;;;0.80;;
59532;SDS011;45351;53.596;10.000;2022-07-23T09:18:27;2.20;;;0.70;;
59532;SDS011;45351;53.596;10.000;2022-07-23T09:21:06;2.53;;;0.80;;
59532;SDS011;45351;53.596;10.000;2022-07-23T09:23:39;1.57;;;0.80;;
59532;SDS011;45351;53.596;10.000;2022-07-23T09:26:18;2.60;;;0.90;;
59532;SDS011;45351;53.596;10.000;2022-07-23T09:28:51;1.50;;;0.80;;
59532;SDS011;45351;53.596;10.000;2022-07-23T09:31:20;2.30;;;0.80;;
59532;SDS011;45351;53.596;10.000;2022-07-23T09:33:49;1.23;;;0.70;;
59532;SDS011;45351;53.596;10.000;2022-07-23T09:36:17;1.00;;;0.70;;
59532;SDS011;45351;53.596;10.000;2022-07-23T09:38:53;1.00;;;0.70;;
59532;SDS011;45351;53.596;10.000;2022-07-23T09:41:22;1.30;;;0.80;;
59532;SDS011;45351;53.596;10.000;2022-07-23T09:43:54;1.77;;;1.03;;
59532;SDS011;45351;53.596;10.000;2022-07-23T09:46:22;3.80;;;1.00;;
59532;SDS011;45351;53.596;10.000;2022-07-23T09:48:50;1.40;;;0.80;;
59532;SDS011;45351;53.596;10.000;2022-07-23T09:51:18;3.47;;;0.80;;
59532;SDS011;45351;53.596;10.000;2022-07-23T09:53:48;1.70;;;0.87;;
59532;SDS011;45351;53.596;10.000;2022-07-23T09:56:15;1.80;;;0.93;;
59532;SDS011;45351;53.596;10.000;2022-07-23T09:58:44;1.30;;;0.90;;
59532;SDS011;45351;53.596;10.000;2022-07-23T10:01:13;2.47;;;1.10;;
59532;SDS011;45351;53.596;10.000;2022-07-23T10:03:41;1.20;;;0.80;;
59532;SDS011;45351;53.596;10.000;2022-07-23T10:06:40;2.30;;;1.00;;
59532;SDS011;45351;53.596;10.000;2022-07-23T10:09:28;1.10;;;0.60;;
59532;SDS011;45351;53.596;10.000;2022-07-23T10:12:32;1.10;;;0.80;;
59532;SDS011;45351;53.596;10.000;2022-07-23T10:15:12;2.10;;;0.80;;
59532;SDS011;45351;53.596;10.000;2022-07-23T10:17:39;2.50;;;0.90;;
59532;SDS011;45351;53.596;10.000;2022-07-23T10:20:06;1.70;;;0.80;;
59532;SDS011;45351;53.596;10.000;2022-07-23T10:22:33;1.83;;;0.80;;
59532;SDS011;45351;53.596;10.000;2022-07-23T10:25:06;2.27;;;0.80;;
59532;SDS011;45351;53.596;10.000;2022-07-23T10:27:43;4.93;;;0.90;;
59532;SDS011;45351;53.596;10.000;2022-07-23T10:30:28;1.53;;;0.80;;
59532;SDS011;45351;53.596;10.000;2022-07-23T10:33:05;1.30;;;0.80;;
59532;SDS011;45351;53.596;10.000;2022-07-23T10:35:42;1.53;;;0.77;;
59532;SDS011;45351;53.596;10.000;2022-07-23T10:38:14;4.50;;;0.90;;
59532;SDS011;45351;53.596;10.000;2022-07-23T10:40:52;0.90;;;0.70;;
59532;SDS011;45351;53.596;10.000;2022-07-23T10:43:21;1.10;;;0.90;;
59532;SDS011;45351;53.596;10.000;2022-07-23T10:45:50;1.20;;;0.70;;
59532;SDS011;45351;53.596;10.000;2022-07-23T10:48:18;1.87;;;0.90;;
59532;SDS011;45351;53.596;10.000;2022-07-23T10:53:52;1.40;;;0.80;;
59532;SDS011;45351;53.596;10.000;2022-07-23T10:59:32;1.63;;;0.90;;
59532;SDS011;45351;53.596;10.000;2022-07-23T11:02:39;2.53;;;0.80;;
59532;SDS011;45351;53.596;10.000;2022-07-23T11:05:08;1.30;;;0.80;;
59532;SDS011;45351;53.596;10.000;2022-07-23T11:07:36;1.40;;;0.80;;
59532;SDS011;45351;53.596;10.000;2022-07-23T11:10:33;3.83;;;0.70;;
59532;SDS011;45351;53.596;10.000;2022-07-23T11:19:05;1.30;;;1.00;;
59532;SDS011;45351;53.596;10.000;2022-07-23T11:21:45;1.73;;;0.90;;
59532;SDS011;45351;53.596;10.000;2022-07-23T11:24:15;3.03;;;0.90;;
59532;SDS011;45351;53.596;10.000;2022-07-23T11:26:44;3.20;;;0.80;;
59532;SDS011;45351;53.596;10.000;2022-07-23T11:32:07;3.57;;;0.90;;
59532;SDS011;45351;53.596;10.000;2022-07-23T11:34:47;1.43;;;0.77;;
59532;SDS011;45351;53.596;10.000;2022-07-23T11:37:26;1.30;;;0.80;;
59532;SDS011;45351;53.596;10.000;2022-07-23T11:40:03;1.47;;;0.80;;
59532;SDS011;45351;53.596;10.000;2022-07-23T11:42:33;1.20;;;0.70;;
59532;SDS011;45351;53.596;10.000;2022-07-23T11:45:02;1.10;;;0.90;;
59532;SDS011;45351;53.596;10.000;2022-07-23T11:47:30;2.90;;;0.80;;
59532;SDS011;45351;53.596;10.000;2022-07-23T11:49:59;1.70;;;0.80;;
59532;SDS011;45351;53.596;10.000;2022-07-23T11:52:27;1.57;;;0.70;;
59532;SDS011;45351;53.596;10.000;2022-07-23T11:54:56;2.03;;;0.77;;
59532;SDS011;45351;53.596;10.000;2022-07-23T11:57:26;1.67;;;0.80;;
59532;SDS011;45351;53.596;10.000;2022-07-23T11:59:54;1.67;;;0.80;;
59532;SDS011;45351;53.596;10.000;2022-07-23T12:02:23;1.43;;;0.80;;
59532;SDS011;45351;53.596;10.000;2022-07-23T12:04:51;2.80;;;0.73;;
59532;SDS011;45351;53.596;10.000;2022-07-23T12:07:24;2.80;;;0.90;;
59532;SDS011;45351;53.596;10.000;2022-07-23T12:09:51;1.40;;;1.00;;
59532;SDS011;45351;53.596;10.000;2022-07-23T12:12:19;1.27;;;0.90;;
59532;SDS011;45351;53.596;10.000;2022-07-23T12:14:47;7.20;;;1.10;;
59532;SDS011;45351;53.596;10.000;2022-07-23T12:17:15;36.53;;;4.13;;
59532;SDS011;45351;53.596;10.000;2022-07-23T12:19:41;31.57;;;3.40;;
59532;SDS011;45351;53.596;10.000;2022-07-23T12:22:08;31.53;;;4.40;;
59532;SDS011;45351;53.596;10.000;2022-07-23T12:27:25;26.93;;;3.27;;
59532;SDS011;45351;53.596;10.000;2022-07-23T12:29:53;15.67;;;1.97;;
59532;SDS011;45351;53.596;10.000;2022-07-23T12:32:20;24.77;;;2.23;;
59532;SDS011;45351;53.596;10.000;2022-07-23T12:34:49;12.30;;;2.10;;
59532;SDS011;45351;53.596;10.000;2022-07-23T12:37:27;36.63;;;3.57;;
59532;SDS011;45351;53.596;10.000;2022-07-23T12:39:54;10.03;;;1.93;;
59532;SDS011;45351;53.596;10.000;2022-07-23T12:42:23;10.33;;;2.07;;
59532;SDS011;45351;53.596;10.000;2022-07-23T12:45:03;7.47;;;1.73;;
59532;SDS011;45351;53.596;10.000;2022-07-23T12:53:05;3.63;;;1.20;;
59532;SDS011;45351;53.596;10.000;2022-07-23T12:55:34;3.77;;;1.40;;
59532;SDS011;45351;53.596;10.000;2022-07-23T12:58:04;3.37;;;1.30;;
59532;SDS011;45351;53.596;10.000;2022-07-23T13:00:34;5.63;;;1.57;;
59532;SDS011;45351;53.596;10.000;2022-07-23T13:03:27;5.00;;;1.30;;
59532;SDS011;45351;53.596;10.000;2022-07-23T13:05:55;3.83;;;1.20;;
59532;SDS011;45351;53.596;10.000;2022-07-23T13:08:23;8.47;;;1.73;;
59532;SDS011;45351;53.596;10.000;2022-07-23T13:10:51;6.60;;;1.40;;
59532;SDS011;45351;53.596;10.000;2022-07-23T13:13:24;3.33;;;1.10;;
59532;SDS011;45351;53.596;10.000;2022-07-23T13:15:52;4.93;;;1.10;;
59532;SDS011;45351;53.596;10.000;2022-07-23T13:18:20;8.10;;;1.97;;
59532;SDS011;45351;53.596;10.000;2022-07-23T13:20:47;3.67;;;1.27;;
59532;SDS011;45351;53.596;10.000;2022-07-23T13:23:14;3.63;;;1.10;;
59532;SDS011;45351;53.596;10.000;2022-07-23T13:25:42;2.90;;;1.20;;
59532;SDS011;45351;53.596;10.000;2022-07-23T13:28:10;1.93;;;1.20;;
59532;SDS011;45351;53.596;10.000;2022-07-23T13:30:38;4.00;;;1.20;;
59532;SDS011;45351;53.596;10.000;2022-07-23T13:33:05;5.93;;;1.20;;
59532;SDS011;45351;53.596;10.000;2022-07-23T13:35:33;1.80;;;0.90;;
59532;SDS011;45351;53.596;10.000;2022-07-23T13:38:00;2.83;;;1.27;;
59532;SDS011;45351;53.596;10.000;2022-07-23T13:40:27;3.27;;;1.00;;
59532;SDS011;45351;53.596;10.000;2022-07-23T13:42:54;4.40;;;1.00;;
59532;SDS011;45351;53.596;10.000;2022-07-23T13:45:21;1.90;;;1.00;;
59532;SDS011;45351;53.596;10.000;2022-07-23T13:47:50;2.03;;;0.90;;
59532;SDS011;45351;53.596;10.000;2022-07-23T13:50:16;1.80;;;1.00;;
59532;SDS011;45351;53.596;10.000;2022-07-23T13:52:43;3.63;;;1.30;;
59532;SDS011;45351;53.596;10.000;2022-07-23T13:55:11;2.63;;;1.00;;
59532;SDS011;45351;53.596;10.000;2022-07-23T13:57:38;3.50;;;0.90;;
59532;SDS011;45351;53.596;10.000;2022-07-23T14:00:06;4.20;;;1.13;;
59532;SDS011;45351;53.596;10.000;2022-07-23T14:02:36;2.40;;;1.00;;
59532;SDS011;45351;53.596;10.000;2022-07-23T14:05:06;4.03;;;1.17;;
59532;SDS011;45351;53.596;10.000;2022-07-23T14:07:35;2.80;;;1.20;;
59532;SDS011;45351;53.596;10.000;2022-07-23T14:10:02;3.63;;;1.40;;
59532;SDS011;45351;53.596;10.000;2022-07-23T14:12:30;2.07;;;1.00;;
59532;SDS011;45351;53.596;10.000;2022-07-23T14:14:57;3.63;;;1.10;;
59532;SDS011;45351;53.596;10.000;2022-07-23T14:17:25;1.13;;;0.90;;
59532;SDS011;45351;53.596;10.000;2022-07-23T14:19:52;3.50;;;1.00;;
59532;SDS011;45351;53.596;10.000;2022-07-23T14:22:20;1.70;;;0.90;;
59532;SDS011;45351;53.596;10.000;2022-07-23T14:24:47;2.17;;;1.77;;
59532;SDS011;45351;53.596;10.000;2022-07-23T14:27:14;2.80;;;2.20;;
59532;SDS011;45351;53.596;10.000;2022-07-23T14:29:41;2.10;;;1.23;;
59532;SDS011;45351;53.596;10.000;2022-07-23T14:32:08;2.57;;;1.40;;
59532;SDS011;45351;53.596;10.000;2022-07-23T14:34:35;2.40;;;0.80;;
59532;SDS011;45351;53.596;10.000;2022-07-23T14:37:02;1.37;;;0.87;;
59532;SDS011;45351;53.596;10.000;2022-07-23T14:39:30;2.27;;;1.00;;
59532;SDS011;45351;53.596;10.000;2022-07-23T14:41:57;1.87;;;1.00;;
59532;SDS011;45351;53.596;10.000;2022-07-23T14:44:24;3.47;;;1.10;;
59532;SDS011;45351;53.596;10.000;2022-07-23T14:46:50;2.17;;;1.00;;
59532;SDS011;45351;53.596;10.000;2022-07-23T14:49:18;1.60;;;0.83;;
59532;SDS011;45351;53.596;10.000;2022-07-23T14:51:45;3.33;;;1.03;;
59532;SDS011;45351;53.596;10.000;2022-07-23T14:54:12;2.70;;;0.90;;
59532;SDS011;45351;53.596;10.000;2022-07-23T14:56:41;1.73;;;0.90;;
59532;SDS011;45351;53.596;10.000;2022-07-23T14:59:08;1.40;;;1.00;;
59532;SDS011;45351;53.596;10.000;2022-07-23T15:01:35;1.57;;;1.13;;
59532;SDS011;45351;53.596;10.000;2022-07-23T15:04:02;2.67;;;0.90;;
59532;SDS011;45351;53.596;10.000;2022-07-23T15:06:29;1.83;;;1.10;;
59532;SDS011;45351;53.596;10.000;2022-07-23T15:08:57;2.73;;;1.00;;
59532;SDS011;45351;53.596;10.000;2022-07-23T15:11:25;4.53;;;0.90;;
59532;SDS011;45351;53.596;10.000;2022-07-23T15:13:53;1.70;;;0.90;;